Terminal Aerodrome Forecast
Issued by NWS Los Angeles, CA

Home | Current Version | Previous Version | Text Only | Print | Product List | Glossary On
Versions: 1 2 3 4 5 6 7 8 9 10 11 12 13 14 15 16 17 18 19 20 21 22 23 24 25 26 27 28 29 30 31 32 33 34
000
FTUS46 KLOX 252359
TAFSMX
TAF
KSMX 252359Z 2600/2624 25012KT P6SM SCT040
     FM260200 28008KT P6SM BKN025
     FM260400 VRB03KT P6SM OVC020
     FM261300 17004KT P6SM BKN025 OVC040
     FM262000 29011KT P6SM SCT025 BKN040=

USA.gov is the U.S. government's official web portal to all federal, state and local government web resources and services.